createdAt,value
2022-12-19T00:00:40.611Z,51.45
2022-12-19T00:02:42.837Z,54.95
2022-12-19T00:04:45.758Z,54.65
2022-12-19T00:06:47.888Z,54.53
2022-12-19T00:08:50.832Z,51.78
2022-12-19T00:10:57.635Z,54.53
2022-12-19T00:12:59.811Z,52.13
2022-12-19T00:15:02.036Z,53.25
2022-12-19T00:17:04.188Z,53.90
2022-12-19T00:21:09.040Z,51.67
2022-12-19T00:23:11.199Z,50.00
2022-12-19T00:25:13.331Z,51.78
2022-12-19T00:27:16.633Z,51.72
2022-12-19T00:29:18.885Z,48.05
2022-12-19T00:31:22.026Z,49.33
2022-12-19T00:33:24.214Z,49.22
2022-12-19T00:35:26.358Z,53.40
2022-12-19T00:37:28.502Z,51.33
2022-12-19T00:39:30.699Z,43.30
2022-12-19T00:41:33.850Z,45.42
2022-12-19T00:43:36.255Z,46.05
2022-12-19T00:47:40.499Z,45.55
2022-12-19T00:49:42.611Z,46.30
2022-12-19T00:51:46.375Z,53.47
2022-12-19T00:53:49.652Z,43.95
2022-12-19T00:55:52.069Z,47.35
2022-12-19T00:57:54.169Z,40.90
2022-12-19T00:59:59.619Z,41.80
2022-12-19T01:02:01.830Z,43.70
2022-12-19T01:06:26.304Z,39.53
2022-12-19T01:08:28.680Z,45.47
2022-12-19T01:10:31.602Z,44.60
2022-12-19T01:12:45.910Z,47.33
2022-12-19T01:14:48.204Z,44.80
2022-12-19T01:16:50.734Z,48.50
2022-12-19T01:18:52.922Z,46.10
2022-12-19T01:20:55.027Z,47.53
2022-12-19T01:22:57.212Z,45.28
2022-12-19T01:25:01.943Z,45.08
2022-12-19T01:27:04.227Z,47.80
2022-12-19T01:29:06.429Z,45.30
2022-12-19T01:31:08.592Z,47.08
2022-12-19T01:33:15.101Z,44.95
2022-12-19T01:35:21.378Z,46.65
2022-12-19T01:37:24.004Z,50.78
2022-12-19T01:39:27.551Z,44.03
2022-12-19T01:41:32.549Z,44.60
2022-12-19T01:43:54.676Z,44.25
2022-12-19T01:45:59.426Z,45.95
2022-12-19T01:48:23.129Z,50.90
2022-12-19T01:50:32.898Z,41.97
2022-12-19T01:52:35.037Z,43.00
2022-12-19T01:54:38.318Z,52.38
2022-12-19T01:56:43.128Z,41.30
2022-12-19T01:58:46.594Z,42.72
2022-12-19T02:00:48.758Z,45.90
2022-12-19T02:02:56.904Z,42.25
2022-12-19T02:05:01.499Z,50.80
2022-12-19T02:07:15.321Z,41.25
2022-12-19T02:09:18.411Z,44.70
2022-12-19T02:11:20.550Z,44.72
2022-12-19T02:13:23.582Z,41.35
2022-12-19T02:15:28.567Z,47.80
2022-12-19T02:17:52.528Z,47.67
2022-12-19T02:20:16.584Z,44.63
2022-12-19T02:22:19.150Z,46.30
2022-12-19T02:24:31.840Z,42.75
2022-12-19T02:27:00.224Z,43.95
2022-12-19T02:29:02.325Z,43.78
2022-12-19T02:31:23.384Z,44.40
2022-12-19T02:33:44.021Z,49.97
2022-12-19T02:35:52.246Z,45.10
2022-12-19T02:38:09.377Z,47.10
2022-12-19T02:40:33.829Z,42.13
2022-12-19T02:42:38.372Z,44.45
2022-12-19T02:44:43.427Z,43.15
2022-12-19T02:46:46.701Z,42.33
2022-12-19T02:48:49.329Z,46.17
2022-12-19T02:50:51.541Z,41.30
2022-12-19T02:52:53.659Z,46.45
2022-12-19T02:54:59.633Z,47.85
2022-12-19T02:57:10.071Z,47.10
2022-12-19T02:59:21.110Z,40.47
2022-12-19T03:01:26.033Z,44.63
2022-12-19T03:03:35.995Z,47.10
2022-12-19T03:05:46.020Z,48.80
2022-12-19T03:07:54.709Z,47.03
2022-12-19T03:09:56.824Z,48.85
2022-12-19T03:12:03.632Z,45.53
2022-12-19T03:14:14.882Z,47.20
2022-12-19T03:16:17.099Z,48.15
2022-12-19T03:18:20.162Z,44.28
2022-12-19T03:20:26.925Z,44.83
2022-12-19T03:22:29.099Z,48.38
2022-12-19T03:24:31.283Z,46.70
2022-12-19T03:26:36.466Z,48.70
2022-12-19T03:29:00.209Z,47.38
2022-12-19T03:31:03.954Z,49.03
2022-12-19T03:33:06.575Z,46.17
2022-12-19T03:35:15.596Z,48.30
2022-12-19T03:37:19.819Z,44.60
2022-12-19T03:39:22.724Z,51.15
2022-12-19T03:41:44.510Z,48.78
2022-12-19T03:43:46.976Z,47.13
2022-12-19T03:46:01.848Z,53.03
2022-12-19T03:48:13.925Z,48.63
2022-12-19T03:50:16.461Z,55.20
2022-12-19T03:52:18.606Z,51.60
2022-12-19T03:54:32.045Z,45.95
2022-12-19T03:56:34.273Z,50.75
2022-12-19T03:58:38.936Z,48.97
2022-12-19T04:00:42.213Z,52.38
2022-12-19T04:02:46.350Z,50.00
2022-12-19T04:04:51.370Z,50.17
2022-12-19T04:06:53.870Z,45.65
2022-12-19T04:08:56.557Z,47.85
2022-12-19T04:11:02.221Z,51.20
2022-12-19T04:13:06.862Z,49.60
2022-12-19T04:15:10.119Z,47.78
2022-12-19T04:19:37.473Z,44.70
2022-12-19T04:21:50.227Z,49.13
2022-12-19T04:23:55.826Z,46.72
2022-12-19T04:25:59.815Z,47.97
2022-12-19T04:28:07.953Z,51.00
2022-12-19T04:30:13.133Z,53.88
2022-12-19T04:32:15.524Z,58.35
2022-12-19T04:36:19.757Z,51.20
2022-12-19T04:38:22.176Z,53.55
2022-12-19T04:42:26.350Z,50.83
2022-12-19T04:44:28.509Z,55.42
2022-12-19T04:46:30.700Z,53.08
2022-12-19T04:48:35.298Z,60.53
2022-12-19T04:50:37.520Z,58.15
2022-12-19T04:54:41.898Z,56.50
2022-12-19T04:56:44.086Z,57.53
2022-12-19T04:58:46.302Z,55.58
2022-12-19T05:00:48.450Z,56.67
2022-12-19T05:02:50.883Z,52.92
2022-12-19T05:04:53.280Z,59.67
2022-12-19T05:06:55.409Z,58.15
2022-12-19T05:08:57.545Z,48.42
2022-12-19T05:11:00.838Z,53.85
2022-12-19T05:13:02.942Z,54.25
2022-12-19T05:15:05.881Z,57.65
2022-12-19T05:17:08.043Z,62.13
2022-12-19T05:19:10.781Z,55.20
2022-12-19T05:21:13.097Z,56.45
2022-12-19T05:23:17.403Z,57.70
2022-12-19T05:25:20.102Z,58.35
2022-12-19T05:27:22.558Z,51.60
2022-12-19T05:31:26.791Z,55.07
2022-12-19T05:33:29.024Z,59.90
2022-12-19T05:35:31.164Z,62.72
2022-12-19T05:37:33.292Z,60.58
2022-12-19T05:39:35.556Z,57.35
2022-12-19T05:41:37.688Z,61.42
2022-12-19T05:43:39.824Z,61.38
2022-12-19T05:45:41.998Z,53.22
2022-12-19T05:47:47.268Z,58.65
2022-12-19T05:49:49.470Z,56.08
2022-12-19T05:51:51.612Z,55.35
2022-12-19T05:53:53.747Z,61.47
2022-12-19T05:56:05.882Z,61.10
2022-12-19T05:58:08.029Z,57.13
2022-12-19T06:00:10.458Z,52.88
2022-12-19T06:04:14.786Z,53.17
2022-12-19T06:06:18.243Z,51.78
2022-12-19T06:08:20.385Z,56.00
2022-12-19T06:10:22.543Z,51.92
2022-12-19T06:12:24.710Z,49.35
2022-12-19T06:14:26.863Z,51.22
2022-12-19T06:16:29.142Z,50.40
2022-12-19T06:18:31.414Z,43.63
2022-12-19T06:20:33.686Z,49.78
2022-12-19T06:22:35.927Z,53.72
2022-12-19T06:24:38.122Z,51.08
2022-12-19T06:26:40.353Z,47.83
2022-12-19T06:28:42.486Z,48.00
2022-12-19T06:30:44.685Z,52.53
2022-12-19T06:32:46.819Z,53.50
2022-12-19T06:35:04.120Z,52.80
2022-12-19T06:37:08.315Z,46.85
2022-12-19T06:39:13.279Z,48.00
2022-12-19T06:41:34.691Z,52.53
2022-12-19T06:43:36.824Z,48.28
2022-12-19T06:45:39.006Z,51.08
2022-12-19T06:47:41.174Z,49.33
2022-12-19T06:49:43.327Z,46.50
2022-12-19T06:51:45.636Z,43.35
2022-12-19T06:53:48.276Z,42.97
2022-12-19T06:55:52.817Z,42.65
2022-12-19T06:57:55.304Z,48.67
2022-12-19T07:01:59.654Z,47.00
2022-12-19T07:04:02.196Z,42.95
2022-12-19T07:06:04.828Z,49.70
2022-12-19T07:08:07.176Z,41.33
2022-12-19T07:10:10.391Z,43.60
2022-12-19T07:12:12.545Z,41.55
2022-12-19T07:14:14.843Z,43.30
2022-12-19T07:16:17.035Z,46.63
2022-12-19T07:18:19.189Z,38.58
2022-12-19T07:20:21.969Z,36.92
2022-12-19T07:22:25.673Z,37.75
2022-12-19T07:24:27.854Z,43.22
2022-12-19T07:26:30.016Z,37.15
2022-12-19T07:28:34.154Z,40.08
2022-12-19T07:30:36.703Z,38.63
2022-12-19T07:32:40.072Z,36.80
2022-12-19T07:34:42.243Z,36.80
2022-12-19T07:36:44.376Z,39.05
2022-12-19T07:38:46.586Z,37.53
2022-12-19T07:40:48.779Z,45.78
2022-12-19T07:42:50.964Z,38.40
2022-12-19T07:44:53.270Z,36.80
2022-12-19T07:46:55.384Z,32.88
2022-12-19T07:49:00.682Z,34.55
2022-12-19T07:51:06.514Z,36.47
2022-12-19T07:53:08.663Z,36.67
2022-12-19T07:55:11.078Z,32.63
2022-12-19T07:59:15.381Z,38.85
2022-12-19T08:01:17.667Z,36.20
2022-12-19T08:03:19.883Z,33.13
2022-12-19T08:05:22.251Z,35.20
2022-12-19T08:07:24.418Z,33.65
2022-12-19T08:09:27.813Z,35.13
2022-12-19T08:11:30.119Z,29.50
2022-12-19T08:13:37.960Z,31.63
2022-12-19T08:15:42.008Z,31.48
2022-12-19T08:17:44.266Z,33.53
2022-12-19T08:19:46.508Z,33.47
2022-12-19T08:21:48.773Z,29.92
2022-12-19T08:23:51.028Z,31.35
2022-12-19T08:26:00.448Z,33.72
2022-12-19T08:28:02.631Z,29.02
2022-12-19T08:30:05.274Z,29.10
2022-12-19T08:32:07.569Z,27.27
2022-12-19T08:34:09.732Z,30.85
2022-12-19T08:36:13.113Z,29.42
2022-12-19T08:38:15.369Z,25.85
2022-12-19T08:40:17.567Z,25.10
2022-12-19T08:42:19.763Z,27.75
2022-12-19T08:44:21.994Z,21.17
2022-12-19T08:46:24.355Z,23.92
2022-12-19T08:48:26.784Z,27.25
2022-12-19T08:50:28.976Z,23.83
2022-12-19T08:52:31.124Z,20.80
2022-12-19T08:54:33.311Z,20.90
2022-12-19T08:56:35.572Z,20.63
2022-12-19T08:58:37.749Z,20.77
2022-12-19T09:00:40.083Z,21.42
2022-12-19T09:02:42.416Z,21.55
2022-12-19T09:07:06.763Z,17.25
2022-12-19T09:09:08.901Z,20.10
2022-12-19T09:11:17.969Z,19.23
2022-12-19T09:13:20.529Z,17.48
2022-12-19T09:17:24.870Z,21.15
2022-12-19T09:21:30.540Z,13.80
2022-12-19T09:23:34.196Z,14.68
2022-12-19T09:25:36.953Z,18.08
2022-12-19T09:28:09.322Z,17.40
2022-12-19T09:30:01.523Z,14.85
2022-12-19T09:32:03.765Z,16.15
2022-12-19T09:34:06.706Z,14.43
2022-12-19T09:36:09.891Z,14.02
2022-12-19T09:38:12.662Z,14.32
2022-12-19T09:40:17.851Z,12.18
2022-12-19T09:42:19.981Z,14.77
2022-12-19T09:44:25.323Z,14.18
2022-12-19T09:46:40.450Z,15.35
2022-12-19T09:48:47.994Z,12.57
2022-12-19T09:50:56.154Z,13.50
2022-12-19T09:53:18.870Z,13.10
2022-12-19T09:55:24.352Z,12.77
2022-12-19T09:57:47.776Z,12.68
2022-12-19T09:59:53.752Z,13.93
2022-12-19T10:02:15.726Z,13.60
2022-12-19T10:04:19.693Z,11.98
2022-12-19T10:07:11.876Z,11.93
2022-12-19T10:09:18.925Z,15.57
2022-12-19T10:12:45.572Z,13.38
2022-12-19T10:13:51.266Z,12.70
2022-12-19T10:16:01.781Z,13.15
2022-12-19T10:18:27.170Z,14.48
2022-12-19T10:20:35.400Z,14.65
2022-12-19T10:22:40.386Z,16.45
2022-12-19T10:25:08.541Z,15.52
2022-12-19T10:27:20.981Z,16.20
2022-12-19T10:29:23.274Z,14.65
2022-12-19T10:31:33.416Z,16.15
2022-12-19T10:33:54.888Z,15.18
2022-12-19T10:36:01.897Z,17.20
2022-12-19T10:38:14.409Z,16.15
2022-12-19T10:40:24.474Z,15.05
2022-12-19T10:42:37.817Z,12.85
2022-12-19T10:44:40.823Z,10.90
2022-12-19T10:46:46.224Z,11.18
2022-12-19T10:48:51.905Z,12.38
2022-12-19T10:50:54.267Z,15.02
2022-12-19T10:53:07.261Z,22.90
2022-12-19T10:57:25.325Z,18.83
2022-12-19T10:59:27.603Z,14.15
2022-12-19T11:01:30.982Z,13.95
2022-12-19T11:03:34.652Z,13.82
2022-12-19T11:05:47.617Z,15.20
2022-12-19T11:08:08.876Z,22.95
2022-12-19T11:12:35.536Z,23.60
2022-12-19T11:19:13.522Z,19.25
2022-12-19T11:19:13.561Z,25.23
2022-12-19T11:28:37.029Z,16.17
2022-12-19T11:28:47.449Z,13.98
2022-12-19T11:29:18.492Z,16.95
2022-12-19T11:29:55.169Z,17.70
2022-12-19T11:30:41.630Z,17.92
2022-12-19T11:32:44.570Z,16.98
2022-12-19T11:34:51.277Z,16.83
2022-12-19T11:36:53.446Z,15.55
2022-12-19T11:38:55.763Z,15.88
2022-12-19T11:40:59.918Z,15.45
2022-12-19T11:43:42.615Z,15.88
2022-12-19T11:45:45.997Z,16.25
2022-12-19T11:47:52.223Z,19.05
2022-12-19T11:50:15.419Z,15.88
2022-12-19T11:53:02.458Z,17.27
2022-12-19T11:54:39.739Z,19.25
2022-12-19T11:56:41.970Z,15.80
2022-12-19T11:58:48.113Z,18.17
2022-12-19T12:00:54.987Z,15.48
2022-12-19T12:03:12.358Z,17.73
2022-12-19T12:05:23.780Z,18.08
2022-12-19T12:08:48.569Z,16.85
2022-12-19T12:14:44.587Z,17.42
2022-12-19T12:21:50.124Z,19.00
2022-12-19T12:28:45.267Z,16.85
2022-12-19T12:31:00.651Z,16.35
2022-12-19T12:31:00.652Z,16.95
2022-12-19T12:31:38.742Z,17.75
2022-12-19T12:31:40.237Z,17.73
2022-12-19T12:31:57.749Z,17.88
2022-12-19T12:32:03.363Z,15.70
2022-12-19T12:35:35.105Z,18.02
2022-12-19T12:40:38.411Z,19.40
2022-12-19T12:42:49.284Z,17.33
2022-12-19T12:44:53.598Z,20.33
2022-12-19T12:47:03.299Z,17.42
2022-12-19T12:49:07.013Z,18.02
2022-12-19T12:51:10.185Z,19.65
2022-12-19T12:53:13.998Z,17.95
2022-12-19T12:55:18.682Z,16.50
2022-12-19T12:57:41.105Z,17.95
2022-12-19T12:59:45.837Z,17.25
2022-12-19T13:01:53.012Z,16.45
2022-12-19T13:04:00.132Z,16.25
2022-12-19T13:06:06.953Z,14.75
2022-12-19T13:08:44.669Z,16.65
2022-12-19T13:10:54.805Z,16.45
2022-12-19T13:13:02.027Z,19.95
2022-12-19T13:15:19.187Z,17.08
2022-12-19T13:17:25.914Z,19.63
2022-12-19T13:19:29.454Z,23.05
2022-12-19T13:21:51.646Z,19.77
2022-12-19T13:24:16.228Z,14.68
2022-12-19T13:26:41.983Z,18.45
2022-12-19T13:28:44.092Z,20.63
2022-12-19T13:31:19.878Z,17.48
2022-12-19T13:33:23.859Z,16.15
2022-12-19T13:36:41.185Z,18.50
2022-12-19T13:40:02.198Z,17.03
2022-12-19T13:40:33.083Z,16.88
2022-12-19T13:43:09.696Z,20.75
2022-12-19T13:45:21.897Z,16.38
2022-12-19T13:47:24.694Z,16.58
2022-12-19T13:49:33.322Z,17.15
2022-12-19T13:51:50.549Z,18.83
2022-12-19T13:53:59.333Z,19.38
2022-12-19T13:56:03.916Z,20.17
2022-12-19T13:58:06.929Z,16.77
2022-12-19T14:00:10.675Z,17.23
2022-12-19T14:02:24.361Z,14.50
2022-12-19T14:04:30.270Z,19.00
2022-12-19T14:06:39.704Z,18.17
2022-12-19T14:08:41.875Z,15.88
2022-12-19T14:11:49.849Z,15.98
2022-12-19T14:13:42.743Z,14.93
2022-12-19T14:15:53.226Z,18.55
2022-12-19T14:17:55.454Z,18.55
2022-12-19T14:22:06.789Z,18.50
2022-12-19T14:22:26.010Z,18.52
2022-12-19T14:24:28.746Z,17.50
2022-12-19T14:28:20.603Z,15.45
2022-12-19T14:28:57.154Z,15.82
2022-12-19T14:31:03.322Z,15.95
2022-12-19T14:33:47.019Z,17.52
2022-12-19T14:36:10.603Z,19.95
2022-12-19T14:39:19.734Z,18.20
2022-12-19T14:40:25.058Z,23.33
2022-12-19T14:44:00.527Z,17.77
2022-12-19T14:52:35.006Z,20.05
2022-12-19T14:54:16.121Z,19.50
2022-12-19T14:54:21.864Z,23.23
2022-12-19T14:54:29.353Z,19.25
2022-12-19T14:56:16.426Z,24.65
2022-12-19T14:58:52.224Z,21.95
2022-12-19T15:00:50.861Z,25.60
2022-12-19T15:02:51.261Z,22.55
2022-12-19T15:05:12.263Z,21.13
2022-12-19T15:07:19.661Z,25.50
2022-12-19T15:11:09.506Z,28.48
2022-12-19T15:14:50.493Z,26.73
2022-12-19T15:14:56.589Z,27.65
2022-12-19T15:17:05.396Z,30.60
2022-12-19T15:19:12.555Z,32.13
2022-12-19T15:21:15.311Z,34.10
2022-12-19T15:23:25.842Z,33.47
2022-12-19T15:26:02.314Z,35.85
2022-12-19T15:27:50.220Z,30.88
2022-12-19T15:29:52.697Z,33.35
2022-12-19T15:31:55.001Z,30.00
2022-12-19T15:34:32.933Z,29.85
2022-12-19T15:36:19.670Z,29.55
2022-12-19T15:38:21.824Z,29.80
2022-12-19T15:40:23.992Z,30.83
2022-12-19T15:42:27.763Z,32.90
2022-12-19T15:44:29.917Z,30.30
2022-12-19T15:46:32.339Z,28.20
2022-12-19T15:48:38.114Z,30.77
2022-12-19T15:50:40.406Z,32.92
2022-12-19T15:52:42.619Z,30.90
2022-12-19T15:54:50.286Z,31.50
2022-12-19T15:56:54.425Z,28.33
2022-12-19T15:58:58.325Z,33.50
2022-12-19T16:01:02.279Z,33.22
2022-12-19T16:05:29.178Z,31.17
2022-12-19T16:07:31.691Z,30.23
2022-12-19T16:09:33.883Z,31.83
2022-12-19T16:13:38.668Z,32.10
2022-12-19T16:15:41.023Z,30.70
2022-12-19T16:17:43.288Z,34.92
2022-12-19T16:19:45.510Z,41.67
2022-12-19T16:21:47.644Z,33.28
2022-12-19T16:23:49.838Z,29.02
2022-12-19T16:25:52.127Z,29.45
2022-12-19T16:27:55.892Z,31.58
2022-12-19T16:30:00.208Z,29.15
2022-12-19T16:32:03.592Z,32.00
2022-12-19T16:34:14.595Z,32.20
2022-12-19T16:36:16.802Z,35.13
2022-12-19T16:38:19.883Z,35.72
2022-12-19T16:40:23.294Z,35.45
2022-12-19T16:42:26.041Z,33.72
2022-12-19T16:44:31.671Z,32.83
2022-12-19T16:46:35.093Z,34.58
2022-12-19T16:48:38.415Z,28.90
2022-12-19T16:50:40.579Z,34.30
2022-12-19T16:52:42.986Z,37.05
2022-12-19T16:54:45.136Z,32.92
2022-12-19T16:56:49.183Z,33.80
2022-12-19T16:58:52.090Z,31.80
2022-12-19T17:00:55.306Z,32.20
2022-12-19T17:03:09.080Z,31.95
2022-12-19T17:05:23.519Z,37.53
2022-12-19T17:07:25.714Z,40.72
2022-12-19T17:09:27.875Z,39.13
2022-12-19T17:11:30.719Z,45.40
2022-12-19T17:13:33.638Z,39.72
2022-12-19T17:15:36.811Z,37.35
2022-12-19T17:17:39.275Z,38.38
2022-12-19T17:19:42.094Z,40.80
2022-12-19T17:21:44.628Z,43.83
2022-12-19T17:25:49.021Z,44.22
2022-12-19T17:27:51.401Z,41.30
2022-12-19T17:29:53.564Z,42.53
2022-12-19T17:31:55.847Z,40.15
2022-12-19T17:33:58.534Z,41.47
2022-12-19T17:36:01.760Z,35.42
2022-12-19T17:38:05.258Z,33.47
2022-12-19T17:40:23.839Z,30.98
2022-12-19T17:42:27.923Z,35.08
2022-12-19T17:44:32.983Z,30.73
2022-12-19T17:46:37.113Z,28.30
2022-12-19T17:48:39.257Z,31.75
2022-12-19T17:50:42.090Z,33.55
2022-12-19T17:52:44.721Z,31.65
2022-12-19T17:54:47.017Z,32.58
2022-12-19T17:56:49.379Z,33.15
2022-12-19T17:58:51.591Z,36.58
2022-12-19T18:00:54.085Z,27.95
2022-12-19T18:02:56.820Z,30.35
2022-12-19T18:04:59.019Z,27.00
2022-12-19T18:07:02.575Z,26.90
2022-12-19T18:09:04.901Z,24.23
2022-12-19T18:11:11.671Z,24.63
2022-12-19T18:13:13.809Z,25.98
2022-12-19T18:15:16.044Z,26.65
2022-12-19T18:17:23.314Z,26.80
2022-12-19T18:19:25.873Z,26.42
2022-12-19T18:23:33.227Z,23.13
2022-12-19T18:25:35.833Z,24.85
2022-12-19T18:29:40.038Z,25.83
2022-12-19T18:31:48.343Z,27.17
2022-12-19T18:33:53.189Z,26.58
2022-12-19T18:35:55.524Z,27.33
2022-12-19T18:37:59.670Z,28.08
2022-12-19T18:40:01.788Z,23.17
2022-12-19T18:42:10.625Z,24.58
2022-12-19T18:44:12.832Z,21.38
2022-12-19T18:46:16.281Z,19.95
2022-12-19T18:48:28.988Z,16.77
2022-12-19T18:50:31.137Z,15.40
2022-12-19T18:52:33.429Z,18.02
2022-12-19T18:54:35.607Z,18.05
2022-12-19T18:56:37.756Z,14.07
2022-12-19T18:58:40.103Z,20.10
2022-12-19T19:00:42.276Z,24.58
2022-12-19T19:02:49.482Z,21.33
2022-12-19T19:04:51.840Z,20.70
2022-12-19T19:06:55.435Z,16.35
2022-12-19T19:08:58.556Z,18.83
2022-12-19T19:11:00.785Z,14.23
2022-12-19T19:13:09.798Z,13.95
2022-12-19T19:15:12.333Z,14.85
2022-12-19T19:17:27.459Z,13.20
2022-12-19T19:19:29.688Z,15.05
2022-12-19T19:21:34.188Z,12.55
2022-12-19T19:23:38.454Z,13.98
2022-12-19T19:25:41.095Z,12.40
2022-12-19T19:29:45.350Z,12.65
2022-12-19T19:31:48.702Z,14.93
2022-12-19T19:33:53.395Z,11.50
2022-12-19T19:35:58.517Z,10.20
2022-12-19T19:38:02.040Z,12.18
2022-12-19T19:40:04.328Z,14.30
2022-12-19T19:42:06.526Z,14.63
2022-12-19T19:44:08.735Z,13.13
2022-12-19T19:46:11.019Z,12.07
2022-12-19T19:48:13.279Z,12.55
2022-12-19T19:50:15.451Z,12.15
2022-12-19T19:52:17.558Z,12.82
2022-12-19T19:54:19.775Z,12.07
2022-12-19T19:56:21.970Z,11.70
2022-12-19T19:58:24.720Z,9.77
2022-12-19T20:00:26.977Z,12.82
2022-12-19T20:02:29.432Z,12.48
2022-12-19T20:06:33.970Z,15.30
2022-12-19T20:08:39.671Z,17.63
2022-12-19T20:10:42.839Z,11.98
2022-12-19T20:12:45.026Z,14.57
2022-12-19T20:14:47.538Z,14.57
2022-12-19T20:18:53.262Z,20.00
2022-12-19T20:20:55.481Z,15.93
2022-12-19T20:22:57.649Z,15.77
2022-12-19T20:24:59.957Z,14.15
2022-12-19T20:27:02.160Z,15.10
2022-12-19T20:29:06.461Z,13.00
2022-12-19T20:31:08.718Z,16.10
2022-12-19T20:33:11.122Z,16.00
2022-12-19T20:35:15.058Z,13.98
2022-12-19T20:37:17.353Z,12.20
2022-12-19T20:39:22.118Z,16.77
2022-12-19T20:41:24.334Z,17.15
2022-12-19T20:43:26.655Z,19.30
2022-12-19T20:45:28.850Z,16.95
2022-12-19T20:47:30.991Z,16.85
2022-12-19T20:49:33.182Z,17.15
2022-12-19T20:51:35.383Z,14.70
2022-12-19T20:53:38.389Z,18.17
2022-12-19T20:55:40.817Z,22.52
2022-12-19T20:57:43.002Z,17.70
2022-12-19T20:59:45.169Z,18.33
2022-12-19T21:01:47.531Z,21.75
2022-12-19T21:03:50.406Z,19.38
2022-12-19T21:05:55.938Z,19.23
2022-12-19T21:07:58.122Z,17.30
2022-12-19T21:10:00.296Z,16.95
2022-12-19T21:12:02.435Z,23.98
2022-12-19T21:14:05.984Z,26.17
2022-12-19T21:16:09.914Z,24.38
2022-12-19T21:18:12.265Z,27.42
2022-12-19T21:20:14.958Z,30.15
2022-12-19T21:22:19.117Z,33.38
2022-12-19T21:24:21.622Z,41.47
2022-12-19T21:26:24.589Z,37.92
2022-12-19T21:28:26.827Z,40.65
2022-12-19T21:30:28.980Z,32.47
2022-12-19T21:32:31.104Z,30.05
2022-12-19T21:34:33.277Z,31.75
2022-12-19T21:36:35.417Z,30.63
2022-12-19T21:38:38.130Z,28.63
2022-12-19T21:40:40.294Z,29.48
2022-12-19T21:42:42.748Z,25.13
2022-12-19T21:44:44.910Z,28.67
2022-12-19T21:46:47.123Z,32.83
2022-12-19T21:48:50.168Z,26.42
2022-12-19T21:50:56.314Z,32.22
2022-12-19T21:52:59.225Z,30.98
2022-12-19T21:55:01.339Z,29.50
2022-12-19T21:57:03.624Z,27.50
2022-12-19T21:59:12.451Z,22.08
2022-12-19T22:01:15.701Z,30.83
2022-12-19T22:03:18.130Z,28.20
2022-12-19T22:05:20.382Z,27.75
2022-12-19T22:07:22.536Z,26.00
2022-12-19T22:09:24.738Z,25.45
2022-12-19T22:11:27.398Z,29.48
2022-12-19T22:13:29.985Z,26.88
2022-12-19T22:17:34.362Z,26.42
2022-12-19T22:19:36.554Z,27.02
2022-12-19T22:21:38.711Z,29.42
2022-12-19T22:23:41.088Z,29.23
2022-12-19T22:25:43.217Z,25.70
2022-12-19T22:27:45.377Z,29.35
2022-12-19T22:29:47.643Z,28.83
2022-12-19T22:31:50.194Z,36.63
2022-12-19T22:33:53.866Z,32.10
2022-12-19T22:35:56.105Z,33.20
2022-12-19T22:37:58.427Z,31.42
2022-12-19T22:40:00.690Z,28.23
2022-12-19T22:42:02.877Z,28.70
2022-12-19T22:44:05.394Z,28.58
2022-12-19T22:46:11.505Z,30.83
2022-12-19T22:48:13.759Z,25.38
2022-12-19T22:50:15.912Z,25.77
2022-12-19T22:52:18.055Z,25.17
2022-12-19T22:54:20.249Z,25.80
2022-12-19T22:56:23.767Z,25.80
2022-12-19T22:58:25.897Z,22.77
2022-12-19T23:00:28.181Z,26.73
2022-12-19T23:02:30.506Z,22.88
2022-12-19T23:04:32.755Z,23.90
2022-12-19T23:06:35.779Z,24.77
2022-12-19T23:08:37.966Z,24.65
2022-12-19T23:10:40.159Z,23.08
2022-12-19T23:12:42.291Z,20.90
2022-12-19T23:14:44.465Z,18.92
2022-12-19T23:16:46.979Z,19.67
2022-12-19T23:21:02.404Z,19.33
2022-12-19T23:23:05.295Z,19.73
2022-12-19T23:25:07.861Z,18.08
2022-12-19T23:29:13.796Z,18.10
2022-12-19T23:31:15.969Z,16.88
2022-12-19T23:33:18.301Z,18.40
2022-12-19T23:35:20.432Z,14.88
2022-12-19T23:37:22.569Z,16.25
2022-12-19T23:39:24.726Z,14.98
2022-12-19T23:41:26.880Z,16.98
2022-12-19T23:43:29.593Z,16.20
2022-12-19T23:45:31.981Z,18.17
2022-12-19T23:47:34.097Z,19.08
2022-12-19T23:49:36.283Z,19.05
2022-12-19T23:51:38.470Z,19.25
2022-12-19T23:53:40.673Z,19.42
2022-12-19T23:55:42.849Z,21.25
2022-12-19T23:57:44.988Z,18.65
2022-12-19T23:59:47.133Z,19.85
